Belleville, Kansas
Current Conditions -  °F | °C
As of 3:55 PM on Sunday 21 Dec 2014 (Local Time) from KCNK Reporting Station
Haze Haze  
Wind Chill: 33°   Ceiling: 600
Heat Index: 41°   Visibility: 4mi
Dew Point: 41°   Wind: 16mph
Humidity: 100%   Direction: 180°S
Pressure: 29.7"   Gusts: NA
Location:  39.82°N, 97.63°W
Report Text: KCNK 212155Z AUTO 18014KT 4SM BR OVC006 05/05 A2970 RMK AO2 SLP063 T00500050
Loading
Personal Weather Stations






























Interactive Weather Map New forecast layout! Learn more

10-Day Weather Forecast

Advertisements
Track Severe Weather on mobile